sensor_id;sensor_type;location;lat;lon;timestamp;pressure;altitude;pressure_sealevel;temperature;humidity
33697;BME280;20031;43.416;23.232;2023-09-30T00:02:13;100421.06;;;16.15;68.51
33697;BME280;20031;43.416;23.232;2023-09-30T00:04:40;100417.97;;;16.11;68.54
33697;BME280;20031;43.416;23.232;2023-09-30T00:07:06;100411.53;;;16.14;68.95
33697;BME280;20031;43.416;23.232;2023-09-30T00:09:31;100409.16;;;16.19;68.14
33697;BME280;20031;43.416;23.232;2023-09-30T00:11:57;100399.28;;;16.21;68.84
33697;BME280;20031;43.416;23.232;2023-09-30T00:14:23;100402.00;;;16.27;68.88
33697;BME280;20031;43.416;23.232;2023-09-30T00:16:51;100399.63;;;16.32;68.51
33697;BME280;20031;43.416;23.232;2023-09-30T00:19:17;100392.75;;;16.31;68.50
33697;BME280;20031;43.416;23.232;2023-09-30T00:21:42;100412.66;;;16.40;68.31
33697;BME280;20031;43.416;23.232;2023-09-30T00:24:08;100405.69;;;16.33;68.24
33697;BME280;20031;43.416;23.232;2023-09-30T00:26:34;100411.22;;;16.37;68.73
33697;BME280;20031;43.416;23.232;2023-09-30T00:29:01;100395.81;;;16.35;68.75
33697;BME280;20031;43.416;23.232;2023-09-30T00:31:31;100382.22;;;16.31;68.58
33697;BME280;20031;43.416;23.232;2023-09-30T00:33:57;100374.09;;;16.26;68.78
33697;BME280;20031;43.416;23.232;2023-09-30T00:36:22;100394.44;;;16.38;68.82
33697;BME280;20031;43.416;23.232;2023-09-30T00:38:48;100373.41;;;16.38;68.65
33697;BME280;20031;43.416;23.232;2023-09-30T00:41:14;100381.59;;;16.50;68.55
33697;BME280;20031;43.416;23.232;2023-09-30T00:43:39;100390.19;;;16.58;68.37
33697;BME280;20031;43.416;23.232;2023-09-30T00:46:26;100389.00;;;16.61;68.48
33697;BME280;20031;43.416;23.232;2023-09-30T00:48:54;100395.38;;;16.73;68.25
33697;BME280;20031;43.416;23.232;2023-09-30T00:51:21;100376.91;;;16.66;67.80
33697;BME280;20031;43.416;23.232;2023-09-30T00:53:48;100382.41;;;16.71;67.64
33697;BME280;20031;43.416;23.232;2023-09-30T00:56:15;100406.25;;;16.90;67.60
33697;BME280;20031;43.416;23.232;2023-09-30T00:58:42;100393.41;;;16.81;67.11
33697;BME280;20031;43.416;23.232;2023-09-30T01:01:08;100409.66;;;16.85;67.23
33697;BME280;20031;43.416;23.232;2023-09-30T01:03:34;100409.38;;;16.80;67.69
33697;BME280;20031;43.416;23.232;2023-09-30T01:06:01;100406.66;;;16.67;67.85
33697;BME280;20031;43.416;23.232;2023-09-30T01:08:27;100401.06;;;16.55;67.49
33697;BME280;20031;43.416;23.232;2023-09-30T01:10:55;100411.34;;;16.50;67.81
33697;BME280;20031;43.416;23.232;2023-09-30T01:13:22;100407.72;;;16.51;68.59
33697;BME280;20031;43.416;23.232;2023-09-30T01:15:48;100403.75;;;16.41;68.38
33697;BME280;20031;43.416;23.232;2023-09-30T01:18:15;100409.91;;;16.48;69.07
33697;BME280;20031;43.416;23.232;2023-09-30T01:20:41;100403.84;;;16.47;68.84
33697;BME280;20031;43.416;23.232;2023-09-30T01:23:06;100404.22;;;16.44;68.68
33697;BME280;20031;43.416;23.232;2023-09-30T01:25:35;100401.03;;;16.49;68.85
33697;BME280;20031;43.416;23.232;2023-09-30T01:28:07;100407.41;;;16.61;69.01
33697;BME280;20031;43.416;23.232;2023-09-30T01:30:33;100418.22;;;16.72;69.32
33697;BME280;20031;43.416;23.232;2023-09-30T01:33:00;100413.84;;;16.79;68.58
33697;BME280;20031;43.416;23.232;2023-09-30T01:35:30;100384.81;;;16.66;68.51
33697;BME280;20031;43.416;23.232;2023-09-30T01:37:59;100394.13;;;16.69;68.16
33697;BME280;20031;43.416;23.232;2023-09-30T01:40:24;100409.28;;;16.87;68.47
33697;BME280;20031;43.416;23.232;2023-09-30T01:42:50;100407.25;;;16.89;68.09
33697;BME280;20031;43.416;23.232;2023-09-30T01:45:16;100418.41;;;16.91;67.84
33697;BME280;20031;43.416;23.232;2023-09-30T01:47:41;100405.19;;;16.85;67.71
33697;BME280;20031;43.416;23.232;2023-09-30T01:50:07;100414.41;;;16.95;67.47
33697;BME280;20031;43.416;23.232;2023-09-30T01:52:34;100397.75;;;16.88;67.73
33697;BME280;20031;43.416;23.232;2023-09-30T01:55:01;100410.75;;;16.96;67.36
33697;BME280;20031;43.416;23.232;2023-09-30T01:57:31;100416.09;;;17.03;67.25
33697;BME280;20031;43.416;23.232;2023-09-30T01:59:57;100408.19;;;17.03;67.25
33697;BME280;20031;43.416;23.232;2023-09-30T02:02:22;100403.13;;;17.01;66.89
33697;BME280;20031;43.416;23.232;2023-09-30T02:04:51;100392.34;;;16.96;67.34
33697;BME280;20031;43.416;23.232;2023-09-30T02:07:26;100391.72;;;16.94;66.91
33697;BME280;20031;43.416;23.232;2023-09-30T02:09:52;100396.22;;;17.00;67.05
33697;BME280;20031;43.416;23.232;2023-09-30T02:12:17;100385.22;;;16.90;66.38
33697;BME280;20031;43.416;23.232;2023-09-30T02:14:43;100399.84;;;16.99;66.27
33697;BME280;20031;43.416;23.232;2023-09-30T02:17:08;100389.03;;;16.88;66.40
33697;BME280;20031;43.416;23.232;2023-09-30T02:19:34;100390.44;;;16.84;66.35
33697;BME280;20031;43.416;23.232;2023-09-30T02:22:00;100394.38;;;16.74;66.61
33697;BME280;20031;43.416;23.232;2023-09-30T02:24:25;100380.78;;;16.70;66.98
33697;BME280;20031;43.416;23.232;2023-09-30T02:26:51;100384.03;;;16.72;67.24
33697;BME280;20031;43.416;23.232;2023-09-30T02:29:17;100392.56;;;16.74;66.65
33697;BME280;20031;43.416;23.232;2023-09-30T02:31:51;100370.16;;;16.57;67.23
33697;BME280;20031;43.416;23.232;2023-09-30T02:34:22;100383.50;;;16.56;66.69
33697;BME280;20031;43.416;23.232;2023-09-30T02:36:49;100395.63;;;16.57;67.15
33697;BME280;20031;43.416;23.232;2023-09-30T02:39:18;100387.50;;;16.52;67.19
33697;BME280;20031;43.416;23.232;2023-09-30T02:41:55;100396.16;;;16.46;67.61
33697;BME280;20031;43.416;23.232;2023-09-30T02:44:23;100394.25;;;16.40;67.59
33697;BME280;20031;43.416;23.232;2023-09-30T02:46:50;100402.59;;;16.43;67.82
33697;BME280;20031;43.416;23.232;2023-09-30T02:49:16;100390.75;;;16.33;67.78
33697;BME280;20031;43.416;23.232;2023-09-30T02:51:41;100387.25;;;16.26;68.08
33697;BME280;20031;43.416;23.232;2023-09-30T02:54:16;100394.47;;;16.24;68.08
33697;BME280;20031;43.416;23.232;2023-09-30T02:56:42;100385.44;;;16.12;68.44
33697;BME280;20031;43.416;23.232;2023-09-30T02:59:19;100383.94;;;16.03;68.19
33697;BME280;20031;43.416;23.232;2023-09-30T03:01:47;100394.78;;;16.00;69.31
33697;BME280;20031;43.416;23.232;2023-09-30T03:04:13;100396.34;;;15.95;69.81
33697;BME280;20031;43.416;23.232;2023-09-30T03:06:50;100387.13;;;15.84;70.28
33697;BME280;20031;43.416;23.232;2023-09-30T03:09:16;100407.06;;;15.93;70.64
33697;BME280;20031;43.416;23.232;2023-09-30T03:11:45;100393.38;;;15.83;70.63
33697;BME280;20031;43.416;23.232;2023-09-30T03:14:28;100411.28;;;15.94;70.94
33697;BME280;20031;43.416;23.232;2023-09-30T03:17:05;100380.44;;;15.82;71.33
33697;BME280;20031;43.416;23.232;2023-09-30T03:19:32;100404.94;;;15.89;71.46
33697;BME280;20031;43.416;23.232;2023-09-30T03:21:57;100385.03;;;15.80;71.43
33697;BME280;20031;43.416;23.232;2023-09-30T03:24:24;100392.00;;;15.87;70.52
33697;BME280;20031;43.416;23.232;2023-09-30T03:26:50;100395.28;;;15.89;70.74
33697;BME280;20031;43.416;23.232;2023-09-30T03:29:18;100382.41;;;15.80;70.52
33697;BME280;20031;43.416;23.232;2023-09-30T03:31:44;100389.00;;;15.90;70.57
33697;BME280;20031;43.416;23.232;2023-09-30T03:34:13;100399.69;;;15.89;70.49
33697;BME280;20031;43.416;23.232;2023-09-30T03:36:41;100380.78;;;15.79;70.62
33697;BME280;20031;43.416;23.232;2023-09-30T03:39:07;100392.19;;;15.86;70.42
33697;BME280;20031;43.416;23.232;2023-09-30T03:41:34;100377.00;;;15.67;70.36
33697;BME280;20031;43.416;23.232;2023-09-30T03:44:07;100391.28;;;15.79;70.22
33697;BME280;20031;43.416;23.232;2023-09-30T03:46:33;100379.44;;;15.69;69.81
33697;BME280;20031;43.416;23.232;2023-09-30T03:49:04;100402.69;;;15.86;69.74
33697;BME280;20031;43.416;23.232;2023-09-30T03:51:33;100384.78;;;15.75;69.64
33697;BME280;20031;43.416;23.232;2023-09-30T03:54:04;100382.97;;;15.76;69.78
33697;BME280;20031;43.416;23.232;2023-09-30T03:56:31;100395.38;;;15.82;69.62
33697;BME280;20031;43.416;23.232;2023-09-30T03:58:56;100401.88;;;15.85;69.26
33697;BME280;20031;43.416;23.232;2023-09-30T04:01:25;100406.88;;;15.95;69.48
33697;BME280;20031;43.416;23.232;2023-09-30T04:03:55;100399.31;;;15.92;69.42
33697;BME280;20031;43.416;23.232;2023-09-30T04:06:22;100404.75;;;15.90;69.28
33697;BME280;20031;43.416;23.232;2023-09-30T04:09:12;100393.72;;;15.81;69.94
33697;BME280;20031;43.416;23.232;2023-09-30T04:11:41;100403.97;;;15.90;70.31
33697;BME280;20031;43.416;23.232;2023-09-30T04:14:09;100397.00;;;15.82;70.43
33697;BME280;20031;43.416;23.232;2023-09-30T04:16:35;100404.31;;;15.87;70.74
33697;BME280;20031;43.416;23.232;2023-09-30T04:19:03;100410.56;;;15.86;70.78
33697;BME280;20031;43.416;23.232;2023-09-30T04:21:31;100403.34;;;15.88;71.09
33697;BME280;20031;43.416;23.232;2023-09-30T04:24:03;100433.66;;;16.05;71.13
33697;BME280;20031;43.416;23.232;2023-09-30T04:26:37;100399.69;;;15.89;70.80
33697;BME280;20031;43.416;23.232;2023-09-30T04:29:03;100428.75;;;16.02;70.95
33697;BME280;20031;43.416;23.232;2023-09-30T04:31:30;100420.63;;;15.97;71.17
33697;BME280;20031;43.416;23.232;2023-09-30T04:33:55;100429.59;;;16.02;71.11
33697;BME280;20031;43.416;23.232;2023-09-30T04:36:25;100414.38;;;15.98;71.42
33697;BME280;20031;43.416;23.232;2023-09-30T04:38:52;100437.34;;;16.10;70.75
33697;BME280;20031;43.416;23.232;2023-09-30T04:41:17;100442.59;;;16.10;70.54
33697;BME280;20031;43.416;23.232;2023-09-30T04:43:44;100414.28;;;15.91;70.44
33697;BME280;20031;43.416;23.232;2023-09-30T04:46:09;100434.94;;;15.94;70.13
33697;BME280;20031;43.416;23.232;2023-09-30T04:48:37;100434.94;;;15.80;70.63
33697;BME280;20031;43.416;23.232;2023-09-30T04:51:06;100431.22;;;15.75;70.63
33697;BME280;20031;43.416;23.232;2023-09-30T04:53:39;100431.06;;;15.62;71.17
33697;BME280;20031;43.416;23.232;2023-09-30T04:56:04;100431.34;;;15.67;70.72
33697;BME280;20031;43.416;23.232;2023-09-30T04:58:30;100431.34;;;15.67;71.02
33697;BME280;20031;43.416;23.232;2023-09-30T05:00:57;100443.09;;;15.71;70.27
33697;BME280;20031;43.416;23.232;2023-09-30T05:03:23;100447.81;;;15.75;69.77
33697;BME280;20031;43.416;23.232;2023-09-30T05:05:54;100458.50;;;15.88;69.49
33697;BME280;20031;43.416;23.232;2023-09-30T05:08:25;100447.69;;;15.97;69.07
33697;BME280;20031;43.416;23.232;2023-09-30T05:10:51;100437.47;;;16.02;68.63
33697;BME280;20031;43.416;23.232;2023-09-30T05:13:20;100447.53;;;16.13;67.92
33697;BME280;20031;43.416;23.232;2023-09-30T05:15:48;100446.88;;;16.26;67.94
33697;BME280;20031;43.416;23.232;2023-09-30T05:18:14;100439.31;;;16.37;67.06
33697;BME280;20031;43.416;23.232;2023-09-30T05:20:39;100448.88;;;16.59;66.91
33697;BME280;20031;43.416;23.232;2023-09-30T05:23:06;100456.25;;;16.70;66.92
33697;BME280;20031;43.416;23.232;2023-09-30T05:25:38;100461.47;;;16.84;66.23
33697;BME280;20031;43.416;23.232;2023-09-30T05:28:05;100468.03;;;16.94;66.27
33697;BME280;20031;43.416;23.232;2023-09-30T05:30:32;100454.88;;;16.94;65.82
33697;BME280;20031;43.416;23.232;2023-09-30T05:32:59;100459.19;;;17.02;65.95
33697;BME280;20031;43.416;23.232;2023-09-30T05:35:25;100473.16;;;17.23;66.33
33697;BME280;20031;43.416;23.232;2023-09-30T05:37:51;100470.44;;;17.38;65.78
33697;BME280;20031;43.416;23.232;2023-09-30T05:40:20;100481.00;;;17.65;65.02
33697;BME280;20031;43.416;23.232;2023-09-30T05:42:55;100471.53;;;17.77;63.97
33697;BME280;20031;43.416;23.232;2023-09-30T05:45:23;100476.72;;;17.97;63.21
33697;BME280;20031;43.416;23.232;2023-09-30T05:47:49;100482.06;;;18.10;62.26
33697;BME280;20031;43.416;23.232;2023-09-30T05:50:18;100486.19;;;18.19;61.58
33697;BME280;20031;43.416;23.232;2023-09-30T05:52:45;100483.00;;;18.30;61.59
33697;BME280;20031;43.416;23.232;2023-09-30T05:55:11;100477.31;;;18.40;61.24
33697;BME280;20031;43.416;23.232;2023-09-30T05:57:36;100493.63;;;18.62;61.08
33697;BME280;20031;43.416;23.232;2023-09-30T06:00:03;100484.53;;;18.71;61.17
33697;BME280;20031;43.416;23.232;2023-09-30T06:02:52;100494.91;;;18.92;61.06
33697;BME280;20031;43.416;23.232;2023-09-30T06:05:18;100480.09;;;18.97;60.09
33697;BME280;20031;43.416;23.232;2023-09-30T06:07:52;100478.31;;;19.04;59.53
33697;BME280;20031;43.416;23.232;2023-09-30T06:10:19;100476.28;;;19.13;58.78
33697;BME280;20031;43.416;23.232;2023-09-30T06:12:50;100485.63;;;19.28;58.42
33697;BME280;20031;43.416;23.232;2023-09-30T06:15:20;100483.00;;;19.47;57.54
33697;BME280;20031;43.416;23.232;2023-09-30T06:17:52;100487.84;;;19.63;56.85
33697;BME280;20031;43.416;23.232;2023-09-30T06:20:18;100480.31;;;19.67;56.71
33697;BME280;20031;43.416;23.232;2023-09-30T06:22:44;100491.28;;;19.83;56.20
33697;BME280;20031;43.416;23.232;2023-09-30T06:25:15;100487.41;;;19.92;55.90
33697;BME280;20031;43.416;23.232;2023-09-30T06:27:45;100492.06;;;20.03;55.21
33697;BME280;20031;43.416;23.232;2023-09-30T06:30:12;100489.59;;;20.14;55.11
33697;BME280;20031;43.416;23.232;2023-09-30T06:32:38;100495.63;;;20.34;54.97
33697;BME280;20031;43.416;23.232;2023-09-30T06:35:04;100487.91;;;20.33;54.06
33697;BME280;20031;43.416;23.232;2023-09-30T06:37:34;100479.13;;;20.32;54.91
33697;BME280;20031;43.416;23.232;2023-09-30T06:39:59;100485.31;;;20.57;54.36
33697;BME280;20031;43.416;23.232;2023-09-30T06:42:28;100493.38;;;20.75;54.13
33697;BME280;20031;43.416;23.232;2023-09-30T06:44:54;100490.50;;;20.83;52.56
33697;BME280;20031;43.416;23.232;2023-09-30T06:47:19;100492.13;;;20.84;53.40
33697;BME280;20031;43.416;23.232;2023-09-30T06:49:46;100490.50;;;20.83;53.61
33697;BME280;20031;43.416;23.232;2023-09-30T06:52:12;100489.63;;;20.89;53.08
33697;BME280;20031;43.416;23.232;2023-09-30T06:54:38;100493.38;;;21.12;53.18
33697;BME280;20031;43.416;23.232;2023-09-30T06:57:04;100503.34;;;21.34;52.49
33697;BME280;20031;43.416;23.232;2023-09-30T06:59:29;100501.03;;;21.44;51.07
33697;BME280;20031;43.416;23.232;2023-09-30T07:01:57;100490.41;;;21.51;50.40
33697;BME280;20031;43.416;23.232;2023-09-30T07:04:22;100510.09;;;21.61;50.39
33697;BME280;20031;43.416;23.232;2023-09-30T07:06:48;100506.41;;;21.62;51.27
33697;BME280;20031;43.416;23.232;2023-09-30T07:09:13;100500.50;;;21.84;50.32
33697;BME280;20031;43.416;23.232;2023-09-30T07:11:38;100493.34;;;21.85;49.58
33697;BME280;20031;43.416;23.232;2023-09-30T07:14:04;100494.22;;;22.14;49.41
33697;BME280;20031;43.416;23.232;2023-09-30T07:16:30;100485.47;;;22.32;49.58
33697;BME280;20031;43.416;23.232;2023-09-30T07:18:55;100494.03;;;22.63;48.54
33697;BME280;20031;43.416;23.232;2023-09-30T07:21:21;100500.38;;;22.91;47.85
33697;BME280;20031;43.416;23.232;2023-09-30T07:23:46;100488.19;;;23.02;47.33
33697;BME280;20031;43.416;23.232;2023-09-30T07:26:13;100498.19;;;23.17;47.07
33697;BME280;20031;43.416;23.232;2023-09-30T07:28:40;100496.22;;;23.24;47.24
33697;BME280;20031;43.416;23.232;2023-09-30T07:31:05;100498.06;;;23.24;45.93
33697;BME280;20031;43.416;23.232;2023-09-30T07:33:31;100493.69;;;23.29;46.62
33697;BME280;20031;43.416;23.232;2023-09-30T07:35:57;100495.91;;;23.55;46.06
33697;BME280;20031;43.416;23.232;2023-09-30T07:38:22;100497.97;;;23.42;45.20
33697;BME280;20031;43.416;23.232;2023-09-30T07:40:48;100489.31;;;23.58;45.19
33697;BME280;20031;43.416;23.232;2023-09-30T07:43:14;100498.94;;;23.93;44.64
33697;BME280;20031;43.416;23.232;2023-09-30T07:45:40;100493.00;;;24.02;43.33
33697;BME280;20031;43.416;23.232;2023-09-30T07:48:07;100500.06;;;24.19;43.64
33697;BME280;20031;43.416;23.232;2023-09-30T07:50:35;100490.44;;;24.18;42.94
33697;BME280;20031;43.416;23.232;2023-09-30T07:53:00;100490.88;;;24.27;42.46
33697;BME280;20031;43.416;23.232;2023-09-30T07:55:26;100502.56;;;24.37;42.16
33697;BME280;20031;43.416;23.232;2023-09-30T07:57:51;100503.25;;;24.44;42.42
33697;BME280;20031;43.416;23.232;2023-09-30T08:00:18;100503.47;;;24.31;41.69
33697;BME280;20031;43.416;23.232;2023-09-30T08:02:46;100486.94;;;24.29;42.09
33697;BME280;20031;43.416;23.232;2023-09-30T08:05:11;100490.34;;;24.53;42.25
33697;BME280;20031;43.416;23.232;2023-09-30T08:07:37;100493.63;;;24.71;41.90
33697;BME280;20031;43.416;23.232;2023-09-30T08:10:03;100482.19;;;24.70;41.35
33697;BME280;20031;43.416;23.232;2023-09-30T08:12:32;100482.19;;;24.87;41.42
33697;BME280;20031;43.416;23.232;2023-09-30T08:14:58;100489.38;;;25.14;41.40
33697;BME280;20031;43.416;23.232;2023-09-30T08:17:23;100488.75;;;25.23;39.98
33697;BME280;20031;43.416;23.232;2023-09-30T08:19:49;100496.66;;;25.35;40.51
33697;BME280;20031;43.416;23.232;2023-09-30T08:22:14;100482.59;;;25.39;40.09
33697;BME280;20031;43.416;23.232;2023-09-30T08:24:40;100492.75;;;25.75;40.12
33697;BME280;20031;43.416;23.232;2023-09-30T08:27:05;100492.44;;;25.88;39.74
33697;BME280;20031;43.416;23.232;2023-09-30T08:29:35;100501.00;;;25.90;38.76
33697;BME280;20031;43.416;23.232;2023-09-30T08:32:03;100488.66;;;25.84;39.43
33697;BME280;20031;43.416;23.232;2023-09-30T08:34:29;100492.09;;;25.84;38.95
33697;BME280;20031;43.416;23.232;2023-09-30T08:36:55;100486.13;;;25.94;39.24
33697;BME280;20031;43.416;23.232;2023-09-30T08:39:20;100488.41;;;26.07;39.06
33697;BME280;20031;43.416;23.232;2023-09-30T08:41:46;100488.06;;;26.20;38.81
33697;BME280;20031;43.416;23.232;2023-09-30T08:44:12;100491.00;;;26.39;38.76
33697;BME280;20031;43.416;23.232;2023-09-30T08:46:38;100479.53;;;26.65;38.94
33697;BME280;20031;43.416;23.232;2023-09-30T08:49:05;100487.81;;;26.90;38.58
33697;BME280;20031;43.416;23.232;2023-09-30T08:51:34;100486.09;;;27.05;38.38
33697;BME280;20031;43.416;23.232;2023-09-30T08:54:01;100478.22;;;27.20;38.63
33697;BME280;20031;43.416;23.232;2023-09-30T08:56:30;100486.72;;;27.48;38.14
33697;BME280;20031;43.416;23.232;2023-09-30T08:59:01;100479.41;;;27.39;37.76
33697;BME280;20031;43.416;23.232;2023-09-30T09:01:29;100472.09;;;27.25;36.88
33697;BME280;20031;43.416;23.232;2023-09-30T09:03:56;100477.72;;;27.28;38.16
33697;BME280;20031;43.416;23.232;2023-09-30T09:06:22;100478.69;;;27.48;38.04
33697;BME280;20031;43.416;23.232;2023-09-30T09:08:48;100463.16;;;27.50;37.53
33697;BME280;20031;43.416;23.232;2023-09-30T09:11:14;100474.63;;;27.77;37.40
33697;BME280;20031;43.416;23.232;2023-09-30T09:13:53;100474.94;;;27.85;37.23
33697;BME280;20031;43.416;23.232;2023-09-30T09:16:22;100451.94;;;27.94;37.27
33697;BME280;20031;43.416;23.232;2023-09-30T09:18:48;100467.22;;;27.94;36.10
33697;BME280;20031;43.416;23.232;2023-09-30T09:21:19;100469.78;;;27.74;36.06
33697;BME280;20031;43.416;23.232;2023-09-30T09:23:50;100461.84;;;27.89;37.00
33697;BME280;20031;43.416;23.232;2023-09-30T09:26:23;100460.53;;;28.01;36.72
33697;BME280;20031;43.416;23.232;2023-09-30T09:28:49;100460.41;;;28.23;37.17
33697;BME280;20031;43.416;23.232;2023-09-30T09:31:22;100460.44;;;28.28;36.25
33697;BME280;20031;43.416;23.232;2023-09-30T09:33:49;100448.13;;;28.36;36.23
33697;BME280;20031;43.416;23.232;2023-09-30T09:36:16;100458.09;;;28.56;35.08
33697;BME280;20031;43.416;23.232;2023-09-30T09:38:49;100452.44;;;28.52;35.84
33697;BME280;20031;43.416;23.232;2023-09-30T09:41:18;100450.38;;;28.69;35.63
33697;BME280;20031;43.416;23.232;2023-09-30T09:43:44;100452.25;;;28.74;35.25
33697;BME280;20031;43.416;23.232;2023-09-30T09:46:10;100445.03;;;28.94;35.19
33697;BME280;20031;43.416;23.232;2023-09-30T09:48:37;100454.72;;;29.10;34.78
33697;BME280;20031;43.416;23.232;2023-09-30T09:51:06;100444.50;;;29.17;34.77
33697;BME280;20031;43.416;23.232;2023-09-30T09:53:35;100449.34;;;29.20;34.52
33697;BME280;20031;43.416;23.232;2023-09-30T09:56:03;100441.81;;;29.17;34.32
33697;BME280;20031;43.416;23.232;2023-09-30T09:58:32;100441.56;;;29.33;34.07
33697;BME280;20031;43.416;23.232;2023-09-30T10:01:00;100433.53;;;29.28;33.63
33697;BME280;20031;43.416;23.232;2023-09-30T10:03:26;100445.31;;;29.27;33.66
33697;BME280;20031;43.416;23.232;2023-09-30T10:05:52;100439.94;;;29.37;33.90
33697;BME280;20031;43.416;23.232;2023-09-30T10:08:20;100435.91;;;29.49;33.21
33697;BME280;20031;43.416;23.232;2023-09-30T10:10:47;100428.91;;;29.63;33.10
33697;BME280;20031;43.416;23.232;2023-09-30T10:19:13;100418.88;;;29.79;31.90
33697;BME280;20031;43.416;23.232;2023-09-30T10:21:39;100427.97;;;30.02;32.11
33697;BME280;20031;43.416;23.232;2023-09-30T10:29:59;100416.97;;;29.99;29.74
33697;BME280;20031;43.416;23.232;2023-09-30T10:35:41;100395.53;;;29.89;30.35
33697;BME280;20031;43.416;23.232;2023-09-30T10:40:49;100389.13;;;30.28;29.58
33697;BME280;20031;43.416;23.232;2023-09-30T10:43:36;100393.91;;;30.41;28.88
33697;BME280;20031;43.416;23.232;2023-09-30T10:46:03;100387.16;;;30.43;29.04
33697;BME280;20031;43.416;23.232;2023-09-30T10:48:33;100370.81;;;30.40;27.87
33697;BME280;20031;43.416;23.232;2023-09-30T10:51:13;100383.09;;;30.51;28.79
33697;BME280;20031;43.416;23.232;2023-09-30T10:53:49;100386.69;;;30.32;27.45
33697;BME280;20031;43.416;23.232;2023-09-30T10:56:18;100373.44;;;30.45;28.28
33697;BME280;20031;43.416;23.232;2023-09-30T10:58:45;100370.66;;;30.60;27.62
33697;BME280;20031;43.416;23.232;2023-09-30T11:01:20;100363.59;;;30.69;28.20
33697;BME280;20031;43.416;23.232;2023-09-30T11:03:46;100359.25;;;30.73;27.15
33697;BME280;20031;43.416;23.232;2023-09-30T11:06:17;100359.47;;;30.76;27.08
33697;BME280;20031;43.416;23.232;2023-09-30T11:08:46;100360.78;;;30.84;27.57
33697;BME280;20031;43.416;23.232;2023-09-30T11:11:16;100351.59;;;30.85;27.70
33697;BME280;20031;43.416;23.232;2023-09-30T11:13:41;100347.28;;;30.89;27.53
33697;BME280;20031;43.416;23.232;2023-09-30T11:16:07;100340.69;;;31.04;27.20
33697;BME280;20031;43.416;23.232;2023-09-30T11:18:33;100343.19;;;30.96;26.92
33697;BME280;20031;43.416;23.232;2023-09-30T11:21:10;100339.88;;;31.04;27.45
33697;BME280;20031;43.416;23.232;2023-09-30T11:23:36;100339.41;;;31.25;26.97
33697;BME280;20031;43.416;23.232;2023-09-30T11:26:03;100337.84;;;31.19;26.92
33697;BME280;20031;43.416;23.232;2023-09-30T11:28:40;100325.94;;;31.25;26.24
33697;BME280;20031;43.416;23.232;2023-09-30T11:31:08;100330.63;;;31.15;26.34
33697;BME280;20031;43.416;23.232;2023-09-30T11:33:55;100320.88;;;31.19;26.27
33697;BME280;20031;43.416;23.232;2023-09-30T11:36:23;100312.28;;;31.17;26.54
33697;BME280;20031;43.416;23.232;2023-09-30T11:38:50;100313.78;;;31.28;26.73
33697;BME280;20031;43.416;23.232;2023-09-30T11:41:18;100298.22;;;31.25;26.40
33697;BME280;20031;43.416;23.232;2023-09-30T11:44:01;100307.81;;;31.07;26.11
33697;BME280;20031;43.416;23.232;2023-09-30T11:46:27;100301.06;;;31.10;26.08
33697;BME280;20031;43.416;23.232;2023-09-30T11:49:00;100296.34;;;30.97;26.40
33697;BME280;20031;43.416;23.232;2023-09-30T11:51:27;100302.78;;;31.01;24.80
33697;BME280;20031;43.416;23.232;2023-09-30T11:53:53;100300.78;;;31.11;25.10
33697;BME280;20031;43.416;23.232;2023-09-30T11:56:20;100289.88;;;30.98;25.61
33697;BME280;20031;43.416;23.232;2023-09-30T11:58:47;100291.53;;;30.89;25.80
33697;BME280;20031;43.416;23.232;2023-09-30T12:01:14;100286.50;;;30.83;25.54
33697;BME280;20031;43.416;23.232;2023-09-30T12:03:40;100289.47;;;30.81;26.66
33697;BME280;20031;43.416;23.232;2023-09-30T12:06:06;100272.69;;;30.66;26.45
33697;BME280;20031;43.416;23.232;2023-09-30T12:08:31;100269.28;;;30.55;26.65
33697;BME280;20031;43.416;23.232;2023-09-30T12:10:57;100275.34;;;30.38;27.28
33697;BME280;20031;43.416;23.232;2023-09-30T12:13:25;100272.63;;;30.42;27.31
33697;BME280;20031;43.416;23.232;2023-09-30T12:15:50;100259.75;;;30.35;27.17
33697;BME280;20031;43.416;23.232;2023-09-30T12:18:18;100256.06;;;30.26;27.36
33697;BME280;20031;43.416;23.232;2023-09-30T12:20:49;100257.41;;;30.23;27.53
33697;BME280;20031;43.416;23.232;2023-09-30T12:23:15;100254.03;;;30.08;26.86
33697;BME280;20031;43.416;23.232;2023-09-30T12:25:40;100258.97;;;29.96;27.52
33697;BME280;20031;43.416;23.232;2023-09-30T12:28:06;100257.63;;;29.93;27.17
33697;BME280;20031;43.416;23.232;2023-09-30T12:30:31;100263.84;;;29.89;27.55
33697;BME280;20031;43.416;23.232;2023-09-30T12:32:57;100250.44;;;29.79;26.75
33697;BME280;20031;43.416;23.232;2023-09-30T12:35:23;100242.16;;;29.71;27.19
33697;BME280;20031;43.416;23.232;2023-09-30T12:37:49;100239.44;;;29.76;27.35
33697;BME280;20031;43.416;23.232;2023-09-30T12:40:14;100248.84;;;29.78;27.38
33697;BME280;20031;43.416;23.232;2023-09-30T12:42:43;100242.16;;;29.71;27.16
33697;BME280;20031;43.416;23.232;2023-09-30T12:45:09;100241.97;;;29.57;27.59
33697;BME280;20031;43.416;23.232;2023-09-30T12:47:34;100241.72;;;29.49;27.45
33697;BME280;20031;43.416;23.232;2023-09-30T12:50:00;100237.22;;;29.39;27.82
33697;BME280;20031;43.416;23.232;2023-09-30T12:52:25;100219.03;;;29.27;27.51
33697;BME280;20031;43.416;23.232;2023-09-30T12:54:50;100221.75;;;29.12;27.98
33697;BME280;20031;43.416;23.232;2023-09-30T12:57:16;100213.16;;;29.05;27.87
33697;BME280;20031;43.416;23.232;2023-09-30T12:59:45;100204.28;;;29.09;28.15
33697;BME280;20031;43.416;23.232;2023-09-30T13:02:16;100217.19;;;29.07;28.82